createdAt,value
2022-11-05T08:47:45.785Z,99673.78
2022-11-05T10:02:00.356Z,99759.13
2022-11-05T10:08:07.855Z,99751.66
2022-11-05T10:14:21.866Z,99702.19
2022-11-05T10:27:03.557Z,99615.72
2022-11-05T10:33:20.615Z,99657.19
2022-11-05T10:39:28.225Z,99639.78
2022-11-05T10:52:59.394Z,99618.44
2022-11-05T11:06:05.505Z,99724.25
2022-11-05T11:12:22.858Z,99762.69
2022-11-05T11:18:50.120Z,99752.84
2022-11-05T11:24:57.822Z,99679.47
2022-11-05T11:31:21.561Z,99714.06
2022-11-05T11:37:33.824Z,99714.72
2022-11-05T11:44:19.703Z,99756.03
2022-11-05T11:50:42.347Z,99772.59
2022-11-05T11:56:53.867Z,99731.28
2022-11-05T12:03:24.074Z,99778.88
2022-11-05T12:25:00.919Z,99721.78
2022-11-05T12:32:03.180Z,99762.09
2022-11-05T12:39:10.290Z,99785.41
2022-11-05T12:45:41.891Z,99686.19
2022-11-05T12:52:34.245Z,99791.47
2022-11-05T13:05:28.650Z,99637.47
2022-11-05T13:12:09.029Z,99800.91
2022-11-05T13:18:26.736Z,99675.28
2022-11-05T13:24:42.851Z,99752.88
2022-11-05T13:30:59.456Z,99792.53
2022-11-05T13:37:26.331Z,99759.16
2022-11-05T13:43:46.008Z,99821.25
2022-11-05T13:50:36.923Z,99822.53
2022-11-05T13:56:58.478Z,99828.00
2022-11-05T14:03:21.129Z,99705.00
2022-11-05T14:09:52.117Z,99751.38
2022-11-05T14:16:28.600Z,99702.47
2022-11-05T14:22:33.402Z,99831.75
2022-11-05T14:29:04.265Z,99698.28
2022-11-05T14:35:41.303Z,99713.81
2022-11-05T14:41:56.182Z,99834.47
2022-11-05T14:48:04.546Z,99852.28
2022-11-05T14:54:35.296Z,99851.00
2022-11-05T15:00:40.917Z,99848.94
2022-11-05T15:07:04.827Z,99861.91
2022-11-05T15:13:10.865Z,99821.59
2022-11-05T15:19:35.468Z,99719.81
2022-11-05T15:25:56.706Z,99873.66
2022-11-05T15:32:05.513Z,99796.34
2022-11-05T15:39:15.246Z,99754.97
2022-11-05T15:45:34.067Z,99846.47
2022-11-05T15:51:38.572Z,99759.16
2022-11-05T15:58:39.538Z,99763.53
2022-11-05T16:05:16.189Z,99755.09
2022-11-05T16:11:47.213Z,99774.84
2022-11-05T16:17:51.383Z,99903.38
2022-11-05T16:24:07.135Z,99881.41
2022-11-05T16:30:31.550Z,99796.97
2022-11-05T16:36:43.076Z,99805.53
2022-11-05T16:42:51.750Z,99896.31
2022-11-05T16:49:07.078Z,99897.31
2022-11-05T16:55:31.616Z,99898.97
2022-11-05T17:01:39.916Z,99818.41
2022-11-05T17:07:48.218Z,99945.38
2022-11-05T17:13:55.864Z,99884.56
2022-11-05T17:20:41.002Z,99847.69
2022-11-05T17:26:49.028Z,99843.66
2022-11-05T17:32:56.347Z,99984.25
2022-11-05T17:39:04.431Z,99940.25
2022-11-05T17:45:19.699Z,99901.28
2022-11-05T17:58:00.634Z,99932.31
2022-11-05T18:04:09.350Z,99983.75
2022-11-05T18:10:21.705Z,99958.28
2022-11-05T18:16:23.779Z,99959.91
2022-11-05T18:22:40.466Z,99884.75
2022-11-05T18:28:53.017Z,99943.81
2022-11-05T18:34:54.990Z,99958.19
2022-11-05T18:41:17.304Z,99907.59
2022-11-05T18:47:28.348Z,99994.16
2022-11-05T19:06:29.597Z,100068.88
2022-11-05T19:19:31.548Z,99947.72
2022-11-05T19:32:13.655Z,100065.75
2022-11-05T19:38:33.024Z,100079.19
2022-11-05T19:44:35.622Z,100074.63
2022-11-05T19:50:59.736Z,100080.16
2022-11-05T19:57:09.997Z,100112.22
2022-11-05T20:03:21.946Z,99985.50
2022-11-05T20:09:33.427Z,100010.44
2022-11-05T20:15:44.921Z,100031.69
2022-11-05T20:28:15.228Z,100119.75
2022-11-05T20:34:39.224Z,100027.06
2022-11-05T20:47:11.961Z,100041.63
2022-11-05T20:53:39.402Z,100050.38
2022-11-05T20:59:54.151Z,100129.56
2022-11-05T21:06:00.849Z,100033.81
2022-11-05T21:12:11.954Z,100057.41
2022-11-05T21:18:20.682Z,100187.81
2022-11-05T21:24:24.597Z,100147.41
2022-11-05T21:30:30.183Z,100152.31
2022-11-05T21:45:03.406Z,100050.59
2022-11-05T22:19:18.958Z,100100.53
2022-11-05T22:25:48.372Z,100091.69
2022-11-05T22:32:34.591Z,100143.53
2022-11-05T22:45:03.383Z,100214.22
2022-11-05T22:51:19.283Z,100184.16
2022-11-05T23:04:49.542Z,100067.88
2022-11-05T23:18:06.263Z,100088.72
2022-11-05T23:31:04.420Z,100183.13
2022-11-05T23:45:04.010Z,100159.25
2022-11-05T23:57:26.696Z,100112.44
